createdAt,value
2023-01-01T00:00:07.398Z,81.30
2023-01-01T00:01:41.711Z,81.30
2023-01-01T00:03:13.746Z,81.56
2023-01-01T00:04:45.846Z,81.81
2023-01-01T00:06:18.084Z,81.99
2023-01-01T00:07:50.087Z,81.94
2023-01-01T00:09:40.871Z,82.04
2023-01-01T00:11:13.016Z,82.03
2023-01-01T00:12:45.000Z,82.28
2023-01-01T00:14:17.103Z,82.32
2023-01-01T00:15:49.069Z,82.13
2023-01-01T00:19:00.106Z,81.98
2023-01-01T00:20:35.463Z,82.19
2023-01-01T00:22:43.714Z,81.86
2023-01-01T00:23:59.720Z,81.74
2023-01-01T00:25:32.899Z,81.84
2023-01-01T00:27:04.943Z,82.29
2023-01-01T00:28:36.906Z,82.29
2023-01-01T00:30:10.477Z,82.43
2023-01-01T00:31:42.436Z,82.21
2023-01-01T00:33:14.522Z,82.51
2023-01-01T00:34:46.649Z,82.38
2023-01-01T00:36:19.575Z,82.47
2023-01-01T00:37:51.897Z,82.56
2023-01-01T00:39:23.950Z,82.45
2023-01-01T00:40:55.899Z,82.55
2023-01-01T00:42:28.072Z,82.34
2023-01-01T00:44:00.139Z,82.36
2023-01-01T00:45:32.282Z,82.00
2023-01-01T00:47:04.644Z,82.15
2023-01-01T00:48:36.647Z,82.24
2023-01-01T00:50:09.024Z,82.18
2023-01-01T00:51:43.946Z,81.75
2023-01-01T00:53:15.978Z,81.34
2023-01-01T00:54:48.008Z,81.36
2023-01-01T00:56:20.575Z,81.64
2023-01-01T00:57:52.588Z,82.04
2023-01-01T00:59:28.705Z,82.10
2023-01-01T01:01:01.321Z,82.45
2023-01-01T01:02:33.710Z,82.60
2023-01-01T01:04:09.757Z,82.66
2023-01-01T01:05:41.815Z,82.33
2023-01-01T01:07:13.919Z,81.92
2023-01-01T01:08:46.783Z,82.15
2023-01-01T01:10:21.378Z,82.17
2023-01-01T01:12:18.142Z,82.00
2023-01-01T01:13:47.334Z,82.08
2023-01-01T01:15:19.861Z,82.11
2023-01-01T01:16:51.978Z,82.19
2023-01-01T01:18:24.183Z,82.44
2023-01-01T01:19:56.196Z,82.36
2023-01-01T01:21:29.866Z,82.63
2023-01-01T01:23:02.078Z,82.50
2023-01-01T01:24:34.079Z,82.76
2023-01-01T01:26:13.826Z,82.78
2023-01-01T01:27:45.779Z,82.42
2023-01-01T01:29:17.952Z,82.41
2023-01-01T01:30:50.042Z,82.54
2023-01-01T01:32:22.193Z,82.48
2023-01-01T01:33:54.314Z,82.43
2023-01-01T01:35:30.180Z,82.68
2023-01-01T01:37:02.332Z,82.74
2023-01-01T01:38:34.373Z,82.62
2023-01-01T01:40:07.111Z,82.78
2023-01-01T01:41:39.351Z,82.23
2023-01-01T01:43:44.911Z,82.25
2023-01-01T01:45:17.260Z,82.18
2023-01-01T01:46:49.310Z,82.13
2023-01-01T01:48:21.989Z,82.34
2023-01-01T01:50:08.012Z,82.60
2023-01-01T01:51:40.726Z,82.62
2023-01-01T01:53:30.321Z,82.48
2023-01-01T01:55:04.651Z,82.94
2023-01-01T01:57:00.507Z,82.73
2023-01-01T01:58:33.373Z,82.95
2023-01-01T02:00:10.894Z,83.07
2023-01-01T02:01:43.866Z,83.00
2023-01-01T02:03:25.093Z,82.74
2023-01-01T02:04:57.893Z,82.78
2023-01-01T02:06:32.389Z,83.04
2023-01-01T02:08:05.572Z,83.21
2023-01-01T02:09:37.768Z,83.47
2023-01-01T02:11:09.701Z,83.68
2023-01-01T02:12:42.011Z,83.66
2023-01-01T02:14:13.967Z,83.86
2023-01-01T02:16:13.040Z,83.71
2023-01-01T02:18:12.287Z,83.67
2023-01-01T02:20:13.987Z,83.46
2023-01-01T02:22:11.315Z,83.71
2023-01-01T02:23:53.871Z,83.50
2023-01-01T02:25:33.163Z,83.61
2023-01-01T02:27:25.665Z,83.54
2023-01-01T02:29:26.002Z,83.46
2023-01-01T02:30:58.820Z,83.32
2023-01-01T02:32:50.732Z,83.25
2023-01-01T02:34:27.323Z,83.16
2023-01-01T02:36:01.827Z,83.11
2023-01-01T02:37:33.980Z,83.06
2023-01-01T02:39:07.594Z,83.01
2023-01-01T02:40:41.104Z,82.85
2023-01-01T02:42:13.613Z,82.86
2023-01-01T02:43:46.521Z,82.84
2023-01-01T02:45:18.847Z,83.10
2023-01-01T02:46:50.883Z,83.20
2023-01-01T02:48:39.866Z,83.02
2023-01-01T02:52:02.345Z,82.45
2023-01-01T02:53:37.787Z,82.52
2023-01-01T02:55:51.546Z,82.39
2023-01-01T02:57:39.220Z,82.47
2023-01-01T02:59:59.935Z,82.63
2023-01-01T03:02:01.658Z,82.59
2023-01-01T03:03:47.493Z,82.55
2023-01-01T03:06:10.208Z,82.73
2023-01-01T03:08:11.066Z,83.01
2023-01-01T03:09:49.236Z,83.13
2023-01-01T03:11:24.237Z,83.25
2023-01-01T03:13:14.968Z,83.02
2023-01-01T03:15:01.749Z,83.05
2023-01-01T03:16:48.900Z,83.14
2023-01-01T03:18:26.483Z,83.16
2023-01-01T03:20:00.462Z,83.21
2023-01-01T03:21:32.510Z,82.93
2023-01-01T03:23:08.429Z,82.93
2023-01-01T03:24:45.089Z,83.12
2023-01-01T03:26:18.915Z,83.02
2023-01-01T03:27:54.633Z,83.22
2023-01-01T03:29:29.897Z,83.18
2023-01-01T03:31:02.191Z,83.09
2023-01-01T03:33:01.342Z,83.13
2023-01-01T03:34:38.092Z,83.28
2023-01-01T03:36:13.623Z,83.06
2023-01-01T03:37:48.884Z,83.07
2023-01-01T03:39:31.929Z,82.63
2023-01-01T03:41:11.070Z,82.95
2023-01-01T03:42:46.569Z,82.78
2023-01-01T03:44:33.365Z,83.02
2023-01-01T03:46:06.342Z,83.13
2023-01-01T03:47:38.620Z,83.02
2023-01-01T03:49:12.332Z,83.06
2023-01-01T03:50:53.299Z,82.88
2023-01-01T03:52:41.368Z,82.59
2023-01-01T03:54:46.082Z,82.90
2023-01-01T03:56:33.948Z,82.86
2023-01-01T03:58:26.882Z,82.81
2023-01-01T04:00:09.761Z,82.54
2023-01-01T04:01:45.853Z,82.47
2023-01-01T04:03:36.122Z,82.61
2023-01-01T04:05:11.453Z,82.68
2023-01-01T04:06:43.484Z,82.69
2023-01-01T04:08:16.393Z,82.78
2023-01-01T04:09:50.903Z,82.75
2023-01-01T04:11:45.053Z,82.77
2023-01-01T04:13:17.088Z,82.67
2023-01-01T04:14:49.162Z,82.61
2023-01-01T04:16:21.215Z,82.64
2023-01-01T04:17:54.211Z,82.64
2023-01-01T04:19:29.611Z,82.69
2023-01-01T04:21:01.731Z,82.88
2023-01-01T04:22:34.066Z,82.91
2023-01-01T04:24:06.540Z,83.09
2023-01-01T04:25:38.638Z,82.92
2023-01-01T04:27:10.694Z,83.02
2023-01-01T04:28:43.255Z,83.19
2023-01-01T04:30:15.765Z,83.06
2023-01-01T04:31:48.084Z,82.82
2023-01-01T04:33:20.171Z,82.68
2023-01-01T04:36:23.980Z,83.05
2023-01-01T04:37:56.064Z,83.13
2023-01-01T04:39:28.032Z,83.11
2023-01-01T04:41:01.461Z,82.93
2023-01-01T04:42:33.702Z,83.01
2023-01-01T04:44:05.898Z,82.91
2023-01-01T04:45:38.081Z,82.89
2023-01-01T04:47:10.223Z,82.51
2023-01-01T04:48:42.235Z,82.67
2023-01-01T04:50:14.484Z,82.84
2023-01-01T04:51:46.752Z,82.80
2023-01-01T04:53:18.827Z,83.08
2023-01-01T04:54:50.825Z,83.15
2023-01-01T04:56:23.548Z,83.05
2023-01-01T04:57:55.568Z,82.95
2023-01-01T04:59:27.569Z,82.90
2023-01-01T05:00:59.768Z,83.07
2023-01-01T05:02:31.916Z,82.94
2023-01-01T05:04:04.125Z,82.89
2023-01-01T05:05:36.353Z,82.57
2023-01-01T05:07:10.701Z,82.75
2023-01-01T05:08:46.088Z,82.80
2023-01-01T05:10:18.099Z,83.08
2023-01-01T05:11:50.184Z,83.14
2023-01-01T05:13:22.219Z,83.14
2023-01-01T05:14:54.328Z,83.11
2023-01-01T05:16:29.058Z,83.09
2023-01-01T05:18:01.381Z,83.21
2023-01-01T05:19:33.415Z,83.19
2023-01-01T05:21:08.276Z,83.48
2023-01-01T05:22:40.352Z,83.47
2023-01-01T05:24:12.544Z,83.44
2023-01-01T05:25:44.856Z,83.31
2023-01-01T05:27:16.973Z,83.61
2023-01-01T05:28:49.402Z,83.40
2023-01-01T05:30:23.726Z,83.30
2023-01-01T05:31:55.829Z,83.38
2023-01-01T05:33:28.236Z,83.63
2023-01-01T05:35:00.341Z,83.59
2023-01-01T05:36:38.967Z,83.59
2023-01-01T05:38:11.294Z,83.64
2023-01-01T05:39:43.214Z,83.62
2023-01-01T05:41:17.424Z,83.65
2023-01-01T05:42:50.303Z,83.53
2023-01-01T05:44:22.333Z,83.59
2023-01-01T05:46:04.934Z,83.73
2023-01-01T05:47:36.970Z,83.67
2023-01-01T05:49:12.048Z,83.83
2023-01-01T05:50:44.061Z,83.58
2023-01-01T05:52:17.549Z,83.47
2023-01-01T05:53:52.001Z,83.60
2023-01-01T05:55:23.997Z,83.53
2023-01-01T05:56:55.954Z,83.64
2023-01-01T05:58:29.394Z,83.41
2023-01-01T06:00:01.369Z,83.84
2023-01-01T06:01:33.496Z,83.70
2023-01-01T06:03:05.519Z,83.81
2023-01-01T06:04:37.656Z,83.67
2023-01-01T06:06:12.443Z,83.81
2023-01-01T06:07:48.348Z,83.68
2023-01-01T06:09:20.863Z,83.63
2023-01-01T06:10:58.973Z,83.58
2023-01-01T06:12:31.017Z,83.77
2023-01-01T06:14:03.157Z,84.08
2023-01-01T06:15:35.248Z,84.03
2023-01-01T06:17:07.324Z,83.96
2023-01-01T06:18:39.697Z,84.03
2023-01-01T06:20:11.793Z,84.23
2023-01-01T06:21:43.858Z,84.09
2023-01-01T06:23:16.975Z,84.18
2023-01-01T06:24:49.015Z,84.32
2023-01-01T06:26:24.475Z,84.37
2023-01-01T06:27:56.556Z,84.38
2023-01-01T06:29:28.510Z,84.39
2023-01-01T06:31:04.797Z,84.58
2023-01-01T06:32:36.913Z,84.65
2023-01-01T06:34:09.350Z,84.51
2023-01-01T06:35:41.406Z,84.45
2023-01-01T06:37:13.398Z,84.60
2023-01-01T06:38:47.865Z,84.94
2023-01-01T06:40:20.112Z,85.18
2023-01-01T06:41:52.310Z,85.13
2023-01-01T06:43:24.342Z,85.18
2023-01-01T06:44:56.442Z,85.05
2023-01-01T06:46:31.451Z,85.24
2023-01-01T06:48:03.647Z,85.23
2023-01-01T06:49:35.599Z,85.40
2023-01-01T06:51:12.849Z,85.33
2023-01-01T06:52:44.906Z,85.40
2023-01-01T06:54:16.968Z,85.74
2023-01-01T06:55:55.013Z,85.77
2023-01-01T06:57:29.127Z,85.78
2023-01-01T06:59:01.806Z,85.73
2023-01-01T07:00:33.888Z,85.87
2023-01-01T07:02:05.986Z,85.82
2023-01-01T07:03:38.933Z,85.94
2023-01-01T07:05:10.991Z,86.01
2023-01-01T07:06:43.417Z,86.05
2023-01-01T07:08:15.505Z,85.97
2023-01-01T07:09:47.579Z,86.20
2023-01-01T07:11:19.664Z,85.93
2023-01-01T07:14:24.800Z,85.90
2023-01-01T07:15:57.423Z,85.92
2023-01-01T07:17:29.541Z,85.81
2023-01-01T07:19:01.710Z,86.42
2023-01-01T07:20:33.698Z,86.56
2023-01-01T07:22:05.697Z,87.07
2023-01-01T07:23:37.916Z,87.18
2023-01-01T07:25:12.219Z,87.50
2023-01-01T07:26:45.465Z,87.94
2023-01-01T07:28:17.659Z,87.74
2023-01-01T07:29:49.677Z,87.49
2023-01-01T07:31:21.901Z,86.99
2023-01-01T07:32:57.192Z,86.78
2023-01-01T07:34:29.152Z,86.44
2023-01-01T07:36:01.128Z,86.46
2023-01-01T07:37:33.507Z,86.54
2023-01-01T07:39:05.534Z,86.61
2023-01-01T07:40:37.620Z,86.72
2023-01-01T07:43:43.496Z,85.95
2023-01-01T07:45:15.552Z,85.82
2023-01-01T07:46:47.604Z,85.71
2023-01-01T07:48:19.626Z,86.16
2023-01-01T07:49:52.353Z,85.96
2023-01-01T07:51:24.423Z,86.13
2023-01-01T07:52:56.624Z,86.10
2023-01-01T07:54:28.627Z,85.73
2023-01-01T07:56:00.642Z,85.45
2023-01-01T07:57:32.789Z,85.51
2023-01-01T07:59:05.718Z,85.12
2023-01-01T08:00:37.865Z,85.18
2023-01-01T08:02:13.242Z,85.04
2023-01-01T08:03:46.044Z,84.70
2023-01-01T08:05:24.284Z,84.79
2023-01-01T08:06:58.548Z,84.65
2023-01-01T08:08:30.598Z,84.64
2023-01-01T08:10:03.441Z,84.33
2023-01-01T08:11:35.468Z,83.92
2023-01-01T08:13:09.097Z,83.60
2023-01-01T08:14:44.177Z,83.65
2023-01-01T08:16:16.288Z,83.50
2023-01-01T08:17:51.162Z,83.13
2023-01-01T08:19:23.146Z,82.78
2023-01-01T08:20:55.631Z,82.50
2023-01-01T08:22:28.032Z,82.53
2023-01-01T08:24:00.030Z,82.25
2023-01-01T08:25:32.127Z,81.99
2023-01-01T08:27:04.276Z,81.75
2023-01-01T08:28:36.625Z,81.60
2023-01-01T08:30:10.628Z,81.41
2023-01-01T08:31:42.674Z,81.30
2023-01-01T08:33:14.773Z,81.15
2023-01-01T08:34:46.928Z,80.87
2023-01-01T08:36:21.120Z,80.72
2023-01-01T08:37:53.183Z,80.64
2023-01-01T08:39:25.377Z,80.58
2023-01-01T08:40:59.668Z,80.14
2023-01-01T08:42:31.730Z,79.95
2023-01-01T08:44:03.952Z,79.67
2023-01-01T08:45:35.975Z,79.47
2023-01-01T08:47:19.435Z,78.87
2023-01-01T08:48:51.558Z,78.73
2023-01-01T08:50:23.611Z,78.46
2023-01-01T08:51:55.606Z,78.48
2023-01-01T08:53:31.788Z,78.21
2023-01-01T08:55:03.909Z,78.13
2023-01-01T08:56:41.244Z,77.70
2023-01-01T08:58:13.283Z,77.67
2023-01-01T08:59:45.275Z,77.33
2023-01-01T09:01:17.544Z,76.97
2023-01-01T09:02:49.922Z,76.65
2023-01-01T09:04:25.002Z,76.51
2023-01-01T09:05:57.234Z,76.27
2023-01-01T09:07:29.394Z,75.91
2023-01-01T09:09:01.514Z,75.32
2023-01-01T09:10:33.607Z,75.53
2023-01-01T09:12:06.693Z,75.48
2023-01-01T09:13:38.645Z,75.18
2023-01-01T09:15:16.465Z,74.63
2023-01-01T09:16:48.735Z,74.40
2023-01-01T09:18:20.784Z,74.25
2023-01-01T09:19:52.795Z,74.59
2023-01-01T09:21:24.840Z,74.31
2023-01-01T09:23:00.997Z,74.05
2023-01-01T09:24:36.175Z,73.82
2023-01-01T09:26:09.632Z,73.37
2023-01-01T09:27:41.561Z,72.80
2023-01-01T09:29:13.864Z,72.58
2023-01-01T09:30:45.867Z,72.58
2023-01-01T09:32:19.148Z,71.96
2023-01-01T09:33:51.669Z,71.91
2023-01-01T09:35:23.739Z,70.84
2023-01-01T09:36:55.954Z,69.91
2023-01-01T09:38:27.986Z,69.57
2023-01-01T09:40:00.237Z,69.83
2023-01-01T09:41:44.127Z,69.13
2023-01-01T09:43:36.295Z,68.56
2023-01-01T09:45:23.597Z,68.12
2023-01-01T09:46:59.906Z,68.47
2023-01-01T09:48:32.065Z,68.99
2023-01-01T09:50:08.354Z,68.38
2023-01-01T09:51:48.748Z,68.57
2023-01-01T09:53:32.699Z,68.23
2023-01-01T09:55:14.431Z,68.15
2023-01-01T09:58:21.673Z,67.99
2023-01-01T09:59:53.869Z,68.29
2023-01-01T10:01:35.165Z,67.78
2023-01-01T10:03:13.322Z,67.77
2023-01-01T10:04:48.437Z,67.28
2023-01-01T10:06:27.093Z,66.90
2023-01-01T10:08:23.259Z,66.42
2023-01-01T10:10:01.923Z,65.20
2023-01-01T10:12:02.824Z,65.48
2023-01-01T10:13:37.225Z,64.93
2023-01-01T10:15:24.512Z,64.67
2023-01-01T10:16:57.943Z,64.58
2023-01-01T10:18:33.798Z,63.87
2023-01-01T10:20:24.131Z,64.60
2023-01-01T10:22:01.128Z,64.68
2023-01-01T10:23:42.078Z,62.05
2023-01-01T10:25:29.523Z,62.69
2023-01-01T10:27:04.779Z,62.78
2023-01-01T10:28:48.491Z,62.79
2023-01-01T10:30:23.110Z,62.76
2023-01-01T10:31:57.191Z,62.15
2023-01-01T10:33:29.277Z,61.86
2023-01-01T10:35:03.338Z,62.22
2023-01-01T10:36:35.843Z,60.67
2023-01-01T10:38:08.365Z,59.71
2023-01-01T10:39:41.038Z,60.59
2023-01-01T10:41:19.573Z,61.20
2023-01-01T10:42:56.771Z,59.72
2023-01-01T10:44:36.911Z,60.42
2023-01-01T10:46:13.783Z,59.09
2023-01-01T10:48:19.781Z,59.00
2023-01-01T10:49:59.230Z,58.81
2023-01-01T10:51:31.270Z,58.10
2023-01-01T10:53:03.277Z,58.72
2023-01-01T10:54:38.110Z,58.95
2023-01-01T10:56:18.676Z,57.54
2023-01-01T10:57:50.681Z,57.87
2023-01-01T10:59:40.606Z,57.81
2023-01-01T11:01:18.628Z,55.99
2023-01-01T11:03:16.843Z,56.69
2023-01-01T11:04:49.835Z,54.65
2023-01-01T11:06:24.130Z,55.42
2023-01-01T11:07:56.158Z,55.20
2023-01-01T11:09:32.029Z,55.36
2023-01-01T11:11:04.701Z,54.34
2023-01-01T11:13:04.190Z,53.17
2023-01-01T11:14:38.920Z,53.31
2023-01-01T11:16:11.747Z,53.38
2023-01-01T11:17:43.822Z,54.67
2023-01-01T11:19:25.551Z,53.98
2023-01-01T11:20:58.956Z,54.35
2023-01-01T11:22:44.149Z,54.29
2023-01-01T11:26:14.337Z,54.71
2023-01-01T11:27:46.835Z,53.69
2023-01-01T11:29:31.262Z,50.99
2023-01-01T11:31:19.326Z,52.83
2023-01-01T11:32:55.834Z,52.16
2023-01-01T11:34:32.183Z,52.02
2023-01-01T11:36:05.387Z,50.14
2023-01-01T11:37:39.284Z,50.01
2023-01-01T11:39:27.139Z,50.50
2023-01-01T11:41:07.371Z,51.05
2023-01-01T11:42:46.497Z,51.12
2023-01-01T11:44:30.702Z,50.59
2023-01-01T11:46:10.412Z,50.50
2023-01-01T11:47:43.377Z,51.71
2023-01-01T11:49:23.439Z,51.95
2023-01-01T11:51:02.578Z,50.73
2023-01-01T11:52:48.409Z,51.28
2023-01-01T11:56:02.135Z,51.43
2023-01-01T11:57:34.691Z,50.11
2023-01-01T11:59:17.142Z,49.68
2023-01-01T12:01:01.397Z,51.11
2023-01-01T12:02:37.665Z,49.98
2023-01-01T12:04:35.849Z,49.18
2023-01-01T12:06:21.544Z,49.92
2023-01-01T12:07:54.290Z,50.12
2023-01-01T12:09:30.756Z,48.63
2023-01-01T12:11:13.339Z,48.61
2023-01-01T12:12:57.928Z,47.49
2023-01-01T12:14:37.745Z,48.25
2023-01-01T12:16:33.103Z,48.67
2023-01-01T12:18:23.321Z,46.64
2023-01-01T12:20:12.041Z,47.41
2023-01-01T12:21:50.731Z,47.96
2023-01-01T12:23:24.694Z,47.48
2023-01-01T12:24:57.633Z,47.80
2023-01-01T12:27:11.080Z,47.92
2023-01-01T12:30:19.015Z,47.81
2023-01-01T12:32:12.342Z,47.33
2023-01-01T12:34:05.618Z,45.80
2023-01-01T12:35:47.861Z,47.04
2023-01-01T12:37:19.865Z,47.45
2023-01-01T12:38:51.955Z,47.60
2023-01-01T12:40:48.532Z,47.18
2023-01-01T12:42:29.604Z,46.82
2023-01-01T12:44:26.055Z,46.82
2023-01-01T12:46:03.927Z,47.53
2023-01-01T12:47:38.901Z,47.08
2023-01-01T12:49:25.823Z,46.59
2023-01-01T12:51:08.430Z,47.70
2023-01-01T12:53:11.458Z,47.28
2023-01-01T12:55:01.680Z,46.77
2023-01-01T12:56:54.377Z,46.86
2023-01-01T12:58:29.009Z,46.45
2023-01-01T13:00:02.834Z,47.72
2023-01-01T13:01:35.917Z,47.69
2023-01-01T13:03:33.202Z,46.89
2023-01-01T13:05:10.966Z,47.79
2023-01-01T13:06:57.725Z,47.39
2023-01-01T13:08:29.756Z,46.80
2023-01-01T13:10:10.782Z,46.96
2023-01-01T13:11:45.469Z,46.37
2023-01-01T13:13:18.259Z,47.60
2023-01-01T13:14:50.995Z,47.89
2023-01-01T13:16:38.346Z,48.11
2023-01-01T13:18:13.721Z,47.72
2023-01-01T13:19:45.795Z,47.53
2023-01-01T13:21:17.984Z,47.54
2023-01-01T13:22:50.003Z,46.85
2023-01-01T13:24:24.291Z,46.92
2023-01-01T13:26:17.725Z,47.23
2023-01-01T13:28:03.706Z,46.23
2023-01-01T13:29:43.850Z,46.76
2023-01-01T13:31:15.897Z,47.02
2023-01-01T13:34:36.942Z,46.52
2023-01-01T13:36:09.080Z,47.12
2023-01-01T13:37:43.286Z,47.18
2023-01-01T13:39:54.387Z,47.47
2023-01-01T13:41:44.418Z,47.40
2023-01-01T13:43:21.479Z,46.92
2023-01-01T13:44:53.576Z,47.64
2023-01-01T13:46:30.191Z,46.95
2023-01-01T13:48:20.611Z,47.46
2023-01-01T13:50:12.543Z,46.18
2023-01-01T13:52:07.505Z,45.88
2023-01-01T13:54:00.129Z,46.22
2023-01-01T13:55:40.414Z,46.80
2023-01-01T13:57:42.934Z,47.24
2023-01-01T13:59:32.410Z,47.24
2023-01-01T14:01:13.501Z,47.76
2023-01-01T14:02:49.603Z,47.48
2023-01-01T14:04:30.111Z,47.41
2023-01-01T14:06:07.282Z,47.77
2023-01-01T14:07:53.585Z,47.99
2023-01-01T14:09:25.875Z,47.98
2023-01-01T14:11:00.922Z,48.41
2023-01-01T14:12:32.917Z,48.64
2023-01-01T14:14:24.889Z,48.89
2023-01-01T14:16:07.660Z,48.94
2023-01-01T14:17:42.089Z,49.12
2023-01-01T14:19:16.374Z,49.31
2023-01-01T14:20:51.783Z,49.47
2023-01-01T14:22:24.365Z,49.69
2023-01-01T14:23:58.809Z,49.88
2023-01-01T14:25:30.917Z,50.07
2023-01-01T14:27:06.039Z,50.29
2023-01-01T14:28:38.607Z,50.51
2023-01-01T14:30:20.260Z,50.92
2023-01-01T14:31:52.697Z,51.16
2023-01-01T14:33:28.355Z,51.59
2023-01-01T14:35:02.158Z,51.80
2023-01-01T14:36:34.203Z,52.24
2023-01-01T14:38:42.797Z,52.99
2023-01-01T14:40:29.442Z,53.41
2023-01-01T14:42:05.525Z,53.41
2023-01-01T14:43:44.061Z,53.45
2023-01-01T14:45:18.359Z,53.83
2023-01-01T14:46:53.218Z,53.93
2023-01-01T14:48:25.742Z,54.67
2023-01-01T14:50:06.309Z,54.92
2023-01-01T14:51:44.853Z,55.05
2023-01-01T14:53:20.882Z,55.08
2023-01-01T14:54:53.054Z,55.15
2023-01-01T14:56:36.964Z,55.12
2023-01-01T14:58:11.826Z,55.40
2023-01-01T14:59:48.657Z,55.53
2023-01-01T15:01:26.159Z,55.62
2023-01-01T15:03:06.976Z,56.00
2023-01-01T15:04:39.554Z,56.43
2023-01-01T15:06:18.715Z,56.86
2023-01-01T15:08:01.008Z,57.24
2023-01-01T15:09:37.188Z,57.36
2023-01-01T15:11:09.348Z,57.50
2023-01-01T15:12:43.336Z,57.47
2023-01-01T15:14:36.616Z,57.58
2023-01-01T15:16:19.554Z,57.99
2023-01-01T15:17:51.846Z,58.37
2023-01-01T15:19:24.206Z,58.30
2023-01-01T15:20:56.520Z,58.71
2023-01-01T15:22:32.080Z,59.43
2023-01-01T15:24:16.756Z,59.43
2023-01-01T15:25:48.885Z,60.10
2023-01-01T15:27:32.269Z,59.91
2023-01-01T15:29:08.420Z,60.32
2023-01-01T15:30:40.510Z,60.70
2023-01-01T15:32:15.663Z,60.83
2023-01-01T15:33:49.225Z,61.18
2023-01-01T15:35:33.126Z,61.11
2023-01-01T15:38:38.770Z,62.12
2023-01-01T15:40:13.637Z,62.07
2023-01-01T15:41:50.951Z,61.99
2023-01-01T15:43:25.760Z,62.15
2023-01-01T15:45:20.626Z,62.28
2023-01-01T15:46:53.171Z,62.76
2023-01-01T15:48:38.078Z,62.85
2023-01-01T15:50:21.462Z,63.19
2023-01-01T15:52:03.936Z,63.22
2023-01-01T15:54:00.353Z,63.52
2023-01-01T15:55:34.145Z,63.75
2023-01-01T15:57:23.604Z,63.44
2023-01-01T15:59:19.183Z,64.03
2023-01-01T16:00:56.970Z,64.36
2023-01-01T16:02:37.010Z,64.74
2023-01-01T16:04:27.928Z,64.81
2023-01-01T16:06:00.860Z,65.29
2023-01-01T16:07:32.918Z,65.13
2023-01-01T16:09:04.926Z,65.10
2023-01-01T16:10:37.497Z,65.47
2023-01-01T16:12:09.765Z,65.52
2023-01-01T16:13:42.415Z,65.90
2023-01-01T16:15:17.082Z,65.97
2023-01-01T16:16:57.123Z,66.20
2023-01-01T16:18:34.496Z,66.25
2023-01-01T16:20:07.107Z,66.33
2023-01-01T16:21:39.180Z,66.62
2023-01-01T16:23:11.575Z,66.82
2023-01-01T16:24:45.530Z,67.30
2023-01-01T16:26:17.667Z,66.99
2023-01-01T16:27:49.835Z,67.31
2023-01-01T16:29:21.911Z,67.37
2023-01-01T16:30:54.213Z,67.42
2023-01-01T16:32:26.220Z,67.68
2023-01-01T16:34:00.840Z,67.79
2023-01-01T16:35:33.328Z,67.68
2023-01-01T16:37:05.380Z,67.90
2023-01-01T16:38:40.098Z,68.10
2023-01-01T16:40:12.321Z,68.14
2023-01-01T16:41:45.052Z,68.26
2023-01-01T16:43:18.303Z,68.27
2023-01-01T16:44:50.568Z,68.47
2023-01-01T16:46:22.625Z,69.05
2023-01-01T16:47:55.666Z,68.95
2023-01-01T16:49:27.718Z,68.96
2023-01-01T16:50:59.831Z,69.13
2023-01-01T16:52:33.877Z,69.25
2023-01-01T16:54:06.276Z,69.26
2023-01-01T16:55:38.283Z,69.41
2023-01-01T16:57:10.449Z,69.34
2023-01-01T16:58:52.997Z,69.26
2023-01-01T17:00:28.346Z,69.62
2023-01-01T17:02:00.538Z,69.74
2023-01-01T17:03:32.789Z,69.87
2023-01-01T17:05:05.230Z,69.74
2023-01-01T17:06:38.989Z,69.84
2023-01-01T17:08:11.100Z,69.96
2023-01-01T17:09:43.544Z,70.25
2023-01-01T17:11:17.421Z,70.45
2023-01-01T17:12:49.480Z,70.49
2023-01-01T17:14:21.471Z,70.41
2023-01-01T17:15:59.608Z,70.46
2023-01-01T17:17:31.781Z,70.59
2023-01-01T17:19:19.104Z,70.87
2023-01-01T17:20:51.995Z,71.09
2023-01-01T17:22:26.757Z,71.17
2023-01-01T17:24:00.036Z,71.16
2023-01-01T17:25:32.284Z,71.05
2023-01-01T17:27:04.381Z,71.46
2023-01-01T17:28:36.846Z,71.53
2023-01-01T17:30:09.550Z,71.55
2023-01-01T17:31:41.714Z,71.56
2023-01-01T17:33:13.793Z,71.58
2023-01-01T17:34:45.813Z,72.03
2023-01-01T17:36:18.284Z,72.07
2023-01-01T17:37:50.405Z,72.10
2023-01-01T17:39:22.461Z,72.34
2023-01-01T17:40:54.692Z,72.52
2023-01-01T17:42:26.827Z,72.29
2023-01-01T17:43:58.898Z,72.57
2023-01-01T17:45:30.928Z,72.60
2023-01-01T17:47:02.970Z,72.57
2023-01-01T17:48:35.100Z,72.90
2023-01-01T17:50:07.736Z,73.01
2023-01-01T17:51:39.936Z,72.93
2023-01-01T17:53:14.309Z,72.89
2023-01-01T17:54:46.514Z,72.96
2023-01-01T17:56:19.640Z,73.08
2023-01-01T17:57:54.813Z,72.91
2023-01-01T17:59:26.869Z,73.30
2023-01-01T18:01:32.271Z,73.21
2023-01-01T18:03:04.506Z,73.43
2023-01-01T18:04:36.917Z,73.70
2023-01-01T18:06:09.199Z,73.59
2023-01-01T18:07:41.256Z,73.85
2023-01-01T18:09:14.577Z,73.95
2023-01-01T18:10:56.388Z,73.63
2023-01-01T18:12:28.495Z,74.03
2023-01-01T18:14:02.408Z,73.83
2023-01-01T18:15:37.929Z,73.92
2023-01-01T18:17:12.903Z,73.95
2023-01-01T18:18:45.028Z,74.05
2023-01-01T18:20:18.521Z,74.34
2023-01-01T18:21:50.507Z,74.36
2023-01-01T18:23:22.612Z,74.66
2023-01-01T18:24:54.764Z,74.62
2023-01-01T18:26:30.309Z,74.47
2023-01-01T18:28:02.386Z,74.72
2023-01-01T18:29:34.545Z,74.84
2023-01-01T18:31:08.488Z,74.95
2023-01-01T18:32:40.598Z,74.53
2023-01-01T18:34:12.745Z,74.25
2023-01-01T18:35:44.896Z,74.51
2023-01-01T18:37:20.422Z,74.57
2023-01-01T18:39:16.011Z,74.68
2023-01-01T18:41:00.406Z,75.01
2023-01-01T18:42:39.715Z,75.14
2023-01-01T18:44:20.712Z,75.32
2023-01-01T18:45:52.763Z,75.70
2023-01-01T18:47:26.994Z,75.50
2023-01-01T18:49:03.588Z,75.72
2023-01-01T18:50:36.960Z,75.52
2023-01-01T18:52:23.175Z,75.44
2023-01-01T18:53:57.356Z,75.40
2023-01-01T18:55:29.376Z,75.76
2023-01-01T18:57:28.961Z,75.76
2023-01-01T18:59:01.614Z,75.84
2023-01-01T19:00:36.289Z,75.94
2023-01-01T19:02:23.515Z,75.76
2023-01-01T19:03:56.901Z,75.91
2023-01-01T19:05:35.169Z,75.80
2023-01-01T19:07:10.998Z,75.92
2023-01-01T19:08:43.048Z,75.94
2023-01-01T19:10:18.649Z,76.38
2023-01-01T19:11:52.124Z,76.45
2023-01-01T19:13:32.357Z,76.24
2023-01-01T19:15:19.506Z,76.22
2023-01-01T19:16:58.601Z,76.22
2023-01-01T19:18:32.708Z,76.19
2023-01-01T19:20:21.735Z,76.11
2023-01-01T19:22:03.147Z,76.39
2023-01-01T19:23:36.126Z,76.64
2023-01-01T19:26:41.103Z,76.70
2023-01-01T19:28:16.000Z,76.86
2023-01-01T19:29:49.579Z,77.10
2023-01-01T19:31:22.077Z,76.95
2023-01-01T19:32:54.159Z,76.91
2023-01-01T19:34:26.387Z,77.05
2023-01-01T19:35:59.156Z,77.09
2023-01-01T19:37:31.215Z,76.92
2023-01-01T19:39:03.358Z,77.07
2023-01-01T19:40:35.384Z,77.15
2023-01-01T19:42:07.603Z,77.21
2023-01-01T19:43:39.753Z,77.21
2023-01-01T19:45:11.964Z,77.29
2023-01-01T19:46:44.027Z,77.27
2023-01-01T19:48:16.325Z,77.56
2023-01-01T19:49:55.223Z,77.62
2023-01-01T19:51:27.809Z,77.62
2023-01-01T19:52:59.808Z,77.59
2023-01-01T19:54:32.991Z,77.83
2023-01-01T19:56:05.275Z,77.63
2023-01-01T19:57:37.308Z,77.68
2023-01-01T19:59:09.342Z,77.71
2023-01-01T20:00:41.504Z,77.76
2023-01-01T20:04:05.644Z,77.65
2023-01-01T20:05:37.895Z,77.82
2023-01-01T20:07:09.917Z,77.75
2023-01-01T20:08:41.985Z,77.85
2023-01-01T20:11:50.618Z,78.43
2023-01-01T20:13:23.058Z,78.55
2023-01-01T20:14:56.514Z,78.28
2023-01-01T20:16:28.648Z,78.32
2023-01-01T20:18:00.728Z,78.51
2023-01-01T20:19:32.991Z,78.27
2023-01-01T20:21:26.476Z,78.38
2023-01-01T20:23:01.962Z,78.11
2023-01-01T20:24:34.002Z,77.80
2023-01-01T20:26:06.060Z,77.93
2023-01-01T20:27:58.109Z,77.92
2023-01-01T20:29:30.243Z,78.07
2023-01-01T20:31:02.350Z,78.40
2023-01-01T20:32:34.414Z,78.75
2023-01-01T20:34:06.666Z,78.91
2023-01-01T20:35:57.379Z,79.01
2023-01-01T20:37:38.187Z,79.10
2023-01-01T20:39:10.359Z,79.29
2023-01-01T20:40:42.325Z,79.45
2023-01-01T20:42:14.497Z,79.33
2023-01-01T20:43:46.563Z,79.22
2023-01-01T20:45:18.842Z,79.37
2023-01-01T20:46:50.952Z,79.62
2023-01-01T20:48:22.935Z,79.50
2023-01-01T20:49:54.985Z,79.46
2023-01-01T20:51:27.154Z,79.36
2023-01-01T20:52:59.343Z,79.29
2023-01-01T20:54:31.417Z,79.32
2023-01-01T20:56:03.544Z,78.83
2023-01-01T20:57:35.537Z,79.01
2023-01-01T20:59:31.286Z,78.93
2023-01-01T21:00:59.930Z,79.07
2023-01-01T21:02:32.272Z,79.09
2023-01-01T21:26:38.551Z,79.77
2023-01-01T21:28:13.287Z,79.88